Time;durP1;ratioP1;P1;durP2;ratioP2;P2;SDS_P1;SDS_P2;PMS_P1;PMS_P2;Temp;Humidity;BMP_temperature;BMP_pressure;BME280_temperature;BME280_humidity;BME280_pressure;Samples;Min_cycle;Max_cycle;Signal;HPM_P1;HPM_P2
2021/07/15 00:01:21;;;;;;;13.77;8.83;;;;;;;25.24;54.23;100887.16;5073518;28;20612;-63
2021/07/15 00:03:47;;;;;;;13.93;9.07;;;;;;;25.54;54.51;100948.31;5074240;28;20620;-63
2021/07/15 00:06:13;;;;;;;9.80;8.80;;;;;;;25.87;54.65;101010.50;5092283;28;20210;-63
2021/07/15 00:08:38;;;;;;;15.93;9.23;;;;;;;25.17;54.78;100899.81;5086749;28;20278;-63
2021/07/15 00:11:13;;;;;;;17.20;9.30;;;;;;;25.88;55.01;101026.22;5072062;28;20684;-63
2021/07/15 00:13:39;;;;;;;12.90;9.47;;;;;;;25.87;55.00;101021.06;5078363;28;20185;-63
2021/07/15 00:16:11;;;;;;;14.97;9.03;;;;;;;25.86;54.94;101019.53;5092535;28;20270;-63
2021/07/15 00:18:41;;;;;;;19.10;9.30;;;;;;;25.66;55.07;100995.19;5092245;28;20189;-63
2021/07/15 00:21:10;;;;;;;16.30;9.27;;;;;;;25.09;55.12;100935.72;5102934;28;20256;-63
2021/07/15 00:23:36;;;;;;;19.57;9.73;;;;;;;25.72;55.44;101026.34;5112321;28;20246;-63
2021/07/15 00:26:04;;;;;;;10.37;8.73;;;;;;;25.65;55.88;101021.25;5113278;28;20191;-63
2021/07/15 00:28:30;;;;;;;13.30;8.70;;;;;;;25.68;56.14;101026.63;5112286;28;20227;-62
2021/07/15 00:30:56;;;;;;;16.50;9.37;;;;;;;25.54;56.31;101004.31;5112666;28;20177;-63
2021/07/15 00:33:21;;;;;;;13.93;9.07;;;;;;;25.62;56.28;101023.06;5112290;28;20593;-63
2021/07/15 00:35:47;;;;;;;12.70;8.47;;;;;;;25.65;56.36;101024.84;5112447;28;20186;-63
2021/07/15 00:38:12;;;;;;;15.33;9.60;;;;;;;25.27;57.23;101023.03;5120922;27;20261;-62
2021/07/15 00:40:39;;;;;;;11.43;9.13;;;;;;;25.24;57.46;101017.63;5132957;27;20330;-63
2021/07/15 00:43:05;;;;;;;16.90;9.60;;;;;;;25.28;57.65;101024.56;5132494;27;20186;-63
2021/07/15 00:45:31;;;;;;;14.00;9.33;;;;;;;24.88;58.11;100996.16;5132795;27;20659;-63
2021/07/15 00:47:57;;;;;;;11.33;9.67;;;;;;;25.09;58.59;101034.19;5133149;27;20205;-63
2021/07/15 00:50:23;;;;;;;15.27;9.50;;;;;;;25.17;58.39;101026.69;5131855;27;20193;-62
2021/07/15 00:52:50;;;;;;;11.47;9.37;;;;;;;24.82;58.47;100981.25;5129155;27;20170;-63
2021/07/15 00:55:24;;;;;;;18.33;9.70;;;;;;;25.16;58.40;101037.25;5111693;28;20621;-63
2021/07/15 00:57:50;;;;;;;17.40;9.80;;;;;;;25.15;58.34;101038.56;5094126;28;20813;-62
2021/07/15 01:00:17;;;;;;;12.33;9.47;;;;;;;25.14;58.51;101034.19;5111274;28;20174;-63
2021/07/15 01:02:42;;;;;;;12.43;9.00;;;;;;;24.57;58.43;100945.50;5127967;27;20189;-63
2021/07/15 01:05:16;;;;;;;17.47;9.53;;;;;;;25.15;58.34;101032.09;5131711;27;20177;-63
2021/07/15 01:07:41;;;;;;;12.70;9.00;;;;;;;25.16;58.26;101025.13;5132643;27;20240;-63
2021/07/15 01:10:09;;;;;;;15.03;9.30;;;;;;;25.14;58.39;101024.91;5112899;27;20182;-63
2021/07/15 01:12:50;;;;;;;16.37;9.57;;;;;;;25.15;58.13;101015.09;5093702;28;20315;-63
2021/07/15 01:15:22;;;;;;;14.07;9.57;;;;;;;24.87;58.17;100974.78;5130866;27;20178;-63
2021/07/15 01:18:05;;;;;;;14.40;9.80;;;;;;;25.07;58.15;101014.13;5132628;27;20212;-63
2021/07/15 01:21:12;;;;;;;13.67;9.90;;;;;;;25.10;58.25;101015.88;5131705;27;20225;-63
2021/07/15 01:24:00;;;;;;;11.60;9.03;;;;;;;25.06;58.11;101018.22;5093304;27;20185;-63
2021/07/15 01:26:31;;;;;;;11.90;9.07;;;;;;;24.81;58.79;101022.97;5118819;27;20198;-63
2021/07/15 01:29:41;;;;;;;16.10;9.50;;;;;;;24.87;58.82;101020.88;5112496;28;20170;-63
2021/07/15 01:32:08;;;;;;;13.40;8.70;;;;;;;24.42;58.87;100962.03;5087137;28;20190;-63
2021/07/15 01:34:36;;;;;;;10.83;9.10;;;;;;;24.78;58.96;101014.75;5111211;28;20170;-63
2021/07/15 01:37:02;;;;;;;13.13;9.67;;;;;;;24.69;59.17;101000.88;5111429;28;20683;-63
2021/07/15 01:39:32;;;;;;;13.77;9.50;;;;;;;23.98;59.03;100882.88;5111070;28;20249;-63
2021/07/15 01:42:05;;;;;;;18.13;9.57;;;;;;;24.75;59.31;101004.44;5111618;28;20559;-63
2021/07/15 01:44:32;;;;;;;14.30;9.63;;;;;;;24.71;59.37;100999.03;5109926;28;20178;-63
2021/07/15 01:47:00;;;;;;;14.20;9.73;;;;;;;24.68;59.51;101000.09;5110799;28;20560;-63
2021/07/15 01:49:27;;;;;;;19.53;10.27;;;;;;;24.61;59.29;100994.97;5114707;27;20572;-63
2021/07/15 01:51:55;;;;;;;20.97;10.20;;;;;;;24.71;59.20;101010.38;5132091;27;20639;-63
2021/07/15 01:54:21;;;;;;;16.00;9.70;;;;;;;24.02;59.34;100926.63;5131283;27;20256;-63
2021/07/15 01:56:48;;;;;;;21.43;10.23;;;;;;;24.06;59.78;100941.25;5131380;27;20177;-63
2021/07/15 01:59:27;;;;;;;10.77;9.37;;;;;;;24.52;59.88;101008.63;5131679;27;20642;-63
2021/07/15 02:01:56;;;;;;;14.67;9.87;;;;;;;24.56;59.72;101018.38;5105146;28;20234;-63
2021/07/15 02:04:23;;;;;;;23.00;11.03;;;;;;;24.58;59.70;101026.38;5110699;28;20585;-62
2021/07/15 02:06:51;;;;;;;15.73;11.03;;;;;;;24.47;60.02;101029.25;5110046;28;20214;-63
2021/07/15 02:09:19;;;;;;;24.90;10.97;;;;;;;24.48;60.01;101031.56;5110551;28;20178;-63
2021/07/15 02:11:48;;;;;;;19.73;10.73;;;;;;;24.41;60.10;101023.56;5111076;28;20170;-63
2021/07/15 02:14:15;;;;;;;20.93;10.53;;;;;;;24.32;60.07;101018.22;5110154;28;20272;-63
2021/07/15 02:16:45;;;;;;;17.20;11.33;;;;;;;24.30;60.49;101023.59;5110829;28;20178;-62
2021/07/15 02:19:12;;;;;;;14.90;10.40;;;;;;;24.18;60.49;101016.41;5110895;28;20716;-62
2021/07/15 02:21:39;;;;;;;18.23;10.40;;;;;;;24.39;60.20;101039.53;5125707;28;20598;-63
2021/07/15 02:24:06;;;;;;;16.97;10.37;;;;;;;24.34;60.28;101038.28;5131069;28;20181;-63
2021/07/15 02:26:34;;;;;;;13.73;9.83;;;;;;;23.69;60.50;100954.91;5131459;28;20201;-63
2021/07/15 02:29:00;;;;;;;15.03;10.63;;;;;;;24.26;60.62;101042.91;5131045;28;20177;-63
2021/07/15 02:31:54;;;;;;;11.63;9.67;;;;;;;24.24;60.74;101045.50;5130847;28;20564;-63
2021/07/15 02:34:28;;;;;;;17.10;9.53;;;;;;;24.23;60.92;101035.47;5110602;28;20204;-63
2021/07/15 02:36:58;;;;;;;14.20;10.00;;;;;;;24.25;60.82;101038.53;5131698;28;20166;-63
2021/07/15 02:39:24;;;;;;;15.53;10.60;;;;;;;24.30;60.87;101034.19;5089450;28;20210;-63
2021/07/15 02:41:49;;;;;;;17.50;10.57;;;;;;;23.35;60.66;100888.31;5090314;28;20171;-63
2021/07/15 02:44:15;;;;;;;18.13;10.17;;;;;;;24.24;60.94;101031.34;5089688;28;20183;-63
2021/07/15 02:46:40;;;;;;;25.47;10.43;;;;;;;24.30;60.74;101037.75;5090698;28;20199;-62
2021/07/15 02:49:06;;;;;;;19.63;10.33;;;;;;;24.30;60.95;101039.84;5091016;28;20175;-63
2021/07/15 02:51:32;;;;;;;19.83;11.00;;;;;;;24.27;60.97;101047.31;5092539;28;20178;-63
2021/07/15 02:53:59;;;;;;;19.03;11.13;;;;;;;24.37;60.62;101040.06;5110238;28;20178;-63
2021/07/15 02:56:46;;;;;;;17.77;10.27;;;;;;;24.36;60.88;101034.94;5110644;28;20314;-62
2021/07/15 02:59:32;;;;;;;20.20;10.63;;;;;;;24.36;60.61;101046.25;5091578;28;20175;-62
2021/07/15 03:02:06;;;;;;;15.17;9.83;;;;;;;24.34;60.62;101046.78;5122233;27;20549;-63
2021/07/15 03:04:41;;;;;;;18.33;9.30;;;;;;;24.35;60.35;101048.31;5134922;27;20628;-63
2021/07/15 03:07:09;;;;;;;19.03;9.53;;;;;;;24.06;60.59;101014.13;5134931;27;20197;-63
2021/07/15 03:09:38;;;;;;;17.97;11.03;;;;;;;24.37;60.38;101050.63;5120533;27;20209;-63
2021/07/15 03:12:23;;;;;;;27.27;10.97;;;;;;;24.37;60.35;101059.88;5114112;28;20656;-62
2021/07/15 03:14:52;;;;;;;15.30;10.00;;;;;;;24.39;60.24;101053.72;5129767;27;20193;-63
2021/07/15 03:17:24;;;;;;;15.83;10.17;;;;;;;24.39;60.20;101059.38;5134828;27;20169;-63
2021/07/15 03:19:52;;;;;;;15.37;10.27;;;;;;;24.38;60.55;101052.16;5132657;27;20223;-62
2021/07/15 03:22:17;;;;;;;15.77;10.00;;;;;;;23.86;60.37;100975.50;5133675;27;20198;-63
2021/07/15 03:24:52;;;;;;;20.63;10.53;;;;;;;24.34;60.22;101060.16;5133439;27;20231;-63
2021/07/15 03:27:19;;;;;;;18.07;10.40;;;;;;;24.29;60.32;101061.72;5133321;27;20602;-63
2021/07/15 03:29:46;;;;;;;18.07;11.07;;;;;;;24.32;60.47;101060.69;5133521;27;20238;-63
2021/07/15 03:32:14;;;;;;;13.97;9.80;;;;;;;24.35;60.40;101061.69;5132996;27;20551;-62
2021/07/15 03:34:40;;;;;;;20.37;10.53;;;;;;;24.35;60.62;101068.13;5133885;27;20607;-63
2021/07/15 03:37:06;;;;;;;19.37;10.47;;;;;;;24.27;60.66;101041.66;5134372;27;20230;-62
2021/07/15 03:39:32;;;;;;;27.03;11.70;;;;;;;23.86;60.46;100969.84;5134304;27;20193;-63
2021/07/15 03:41:58;;;;;;;24.53;12.00;;;;;;;24.47;60.56;101058.31;5133678;27;20173;-62
2021/07/15 03:44:25;;;;;;;21.13;10.87;;;;;;;24.57;60.49;101062.44;5133916;27;20201;-63
2021/07/15 03:46:51;;;;;;;14.13;10.87;;;;;;;23.81;60.25;100933.84;5134408;27;20205;-62
2021/07/15 03:49:18;;;;;;;17.27;10.67;;;;;;;24.63;60.20;101063.25;5133493;27;20670;-63
2021/07/15 03:51:45;;;;;;;19.20;11.10;;;;;;;24.69;59.73;101057.53;5133760;27;20201;-63
2021/07/15 03:54:12;;;;;;;18.70;10.70;;;;;;;24.69;59.64;101061.16;5118525;27;20182;-63
2021/07/15 03:56:42;;;;;;;14.77;10.60;;;;;;;24.71;59.47;101058.56;5113691;28;20688;-63
2021/07/15 03:59:08;;;;;;;16.43;10.13;;;;;;;24.58;59.52;101046.22;5113624;28;20882;-62
2021/07/15 04:01:34;;;;;;;17.50;11.07;;;;;;;24.73;59.61;101056.00;5112523;27;20552;-63
2021/07/15 04:04:02;;;;;;;17.27;10.83;;;;;;;24.76;59.38;101054.94;5092165;28;20649;-63
2021/07/15 04:06:29;;;;;;;17.47;10.87;;;;;;;24.81;59.38;101065.50;5092618;28;20301;-63
2021/07/15 04:09:00;;;;;;;8.33;7.53;;;;;;;25.42;60.57;101060.34;5099530;27;20302;-65
2021/07/15 04:11:28;;;;;;;11.80;8.33;;;;;;;25.59;57.09;100958.84;5121745;27;20178;-66
2021/07/15 04:13:54;;;;;;;10.10;8.00;;;;;;;26.61;55.80;101056.31;5131536;27;20655;-63
2021/07/15 04:16:38;;;;;;;17.53;7.97;;;;;;;26.91;55.04;101059.84;5133393;27;20247;-63
2021/07/15 04:19:06;;;;;;;10.20;7.97;;;;;;;27.54;53.07;101059.31;5133622;27;20193;-64
2021/07/15 04:21:34;;;;;;;11.67;8.13;;;;;;;27.91;51.91;101068.59;5132201;27;20271;-65
2021/07/15 04:24:01;;;;;;;14.37;8.00;;;;;;;28.27;50.62;101060.47;5132427;27;20189;-64
2021/07/15 04:26:26;;;;;;;14.87;8.27;;;;;;;28.39;50.74;101056.91;5133268;27;20293;-64
2021/07/15 04:28:53;;;;;;;12.93;8.23;;;;;;;28.17;49.05;100957.56;5133395;27;20655;-64
2021/07/15 04:31:33;;;;;;;14.73;8.60;;;;;;;29.17;48.61;101064.75;5131734;27;20208;-63
2021/07/15 04:34:00;;;;;;;14.97;9.03;;;;;;;29.04;48.91;101037.00;5131858;27;20169;-65
2021/07/15 04:36:30;;;;;;;13.52;8.98;;;;;;;28.55;48.40;100949.59;5132768;27;20208;-65
2021/07/15 04:38:56;;;;;;;19.75;9.40;;;;;;;28.80;48.36;100963.03;5133033;27;20189;-65
2021/07/15 04:41:24;;;;;;;17.87;8.07;;;;;;;28.95;48.67;100986.06;5114599;27;20542;-60
2021/07/15 04:43:51;;;;;;;22.57;9.60;;;;;;;29.49;48.71;101066.06;5133300;27;20196;-65
2021/07/15 04:46:19;;;;;;;21.37;9.53;;;;;;;29.44;51.05;101067.00;5133924;27;20197;-65
2021/07/15 04:48:45;;;;;;;15.57;9.10;;;;;;;29.28;50.72;101036.69;5133889;27;20253;-65
2021/07/15 04:51:14;;;;;;;13.10;8.67;;;;;;;29.45;49.45;101067.75;5115229;27;20185;-66
2021/07/15 04:53:40;;;;;;;17.03;8.90;;;;;;;29.36;48.87;101059.63;5134014;27;20177;-66
2021/07/15 04:56:06;;;;;;;14.73;9.00;;;;;;;29.18;48.90;101064.16;5133734;27;20177;-65
2021/07/15 04:58:32;;;;;;;19.67;8.77;;;;;;;29.14;49.07;101066.63;5133953;27;20246;-65
2021/07/15 05:00:59;;;;;;;15.37;8.53;;;;;;;29.11;49.00;101078.34;5132787;27;20169;-65
2021/07/15 05:03:36;;;;;;;14.57;8.60;;;;;;;28.37;49.07;100964.69;5108165;28;20191;-65
2021/07/15 05:06:04;;;;;;;11.07;8.07;;;;;;;29.03;49.29;101078.22;5112567;28;20620;-65
2021/07/15 05:08:30;;;;;;;15.93;8.37;;;;;;;28.80;48.96;101010.75;5113107;28;20240;-66
2021/07/15 05:10:57;;;;;;;17.37;8.27;;;;;;;29.41;48.46;101076.66;5119929;27;20233;-65
2021/07/15 05:13:22;;;;;;;14.30;7.57;;;;;;;29.34;47.87;101050.88;5112440;28;20179;-65
2021/07/15 05:15:49;;;;;;;13.87;8.20;;;;;;;29.56;47.95;101071.16;5112126;28;20189;-65
2021/07/15 05:18:15;;;;;;;12.80;7.63;;;;;;;29.68;47.53;101063.09;5112103;28;20181;-65
2021/07/15 05:20:41;;;;;;;16.57;8.10;;;;;;;29.86;47.06;101073.56;5112127;28;20218;-65
2021/07/15 05:23:06;;;;;;;9.93;7.57;;;;;;;29.53;47.41;101034.34;5111710;28;20181;-66
2021/07/15 05:25:32;;;;;;;15.37;8.10;;;;;;;29.85;47.26;101086.31;5112283;28;20183;-65
2021/07/15 05:27:58;;;;;;;12.63;7.33;;;;;;;29.85;47.30;101083.47;5110070;28;20198;-64
2021/07/15 05:30:23;;;;;;;13.87;7.60;;;;;;;29.03;47.07;100958.38;5110255;28;20182;-64
2021/07/15 05:32:49;;;;;;;10.98;7.68;;;;;;;29.84;47.29;101094.13;5108629;28;20566;-64
2021/07/15 05:35:14;;;;;;;14.40;7.57;;;;;;;29.86;47.04;101097.19;5110796;28;20586;-64
2021/07/15 05:37:40;;;;;;;17.58;7.10;;;;;;;29.44;46.81;101023.38;5116612;27;20188;-65
2021/07/15 05:40:07;;;;;;;16.33;7.70;;;;;;;30.01;46.55;101108.00;5131058;27;20708;-64
2021/07/15 05:42:33;;;;;;;14.00;7.68;;;;;;;29.80;46.21;101052.94;5111640;27;20182;-64
2021/07/15 05:44:58;;;;;;;14.43;7.13;;;;;;;30.18;46.21;101088.38;5109529;28;20251;-64
2021/07/15 05:47:24;;;;;;;15.43;8.35;;;;;;;29.95;46.34;101073.09;5110880;28;20202;-68
2021/07/15 05:49:49;;;;;;;14.05;7.53;;;;;;;29.99;46.54;101074.25;5114257;27;20559;-70
2021/07/15 05:52:15;;;;;;;14.63;8.32;;;;;;;30.23;46.50;101091.09;5110950;28;20174;-65
2021/07/15 05:54:41;;;;;;;17.20;8.15;;;;;;;29.80;47.32;101090.84;5111322;28;20190;-66
2021/07/15 05:57:07;;;;;;;13.57;7.43;;;;;;;28.94;48.53;101015.13;5109920;28;20230;-68
2021/07/15 05:59:35;;;;;;;18.60;8.67;;;;;;;29.59;47.94;101094.97;5109708;28;20182;-67
2021/07/15 06:02:01;;;;;;;11.52;7.88;;;;;;;29.56;48.09;101094.00;5118559;27;20220;-66
2021/07/15 06:04:27;;;;;;;15.27;7.83;;;;;;;29.31;47.46;101023.41;5116209;27;20261;-66
2021/07/15 06:06:53;;;;;;;15.00;8.00;;;;;;;29.73;47.72;101105.06;5110103;28;20198;-65
2021/07/15 06:09:18;;;;;;;13.83;7.53;;;;;;;29.77;47.46;101091.16;5109260;28;20231;-65
2021/07/15 06:11:44;;;;;;;12.45;7.63;;;;;;;30.00;47.44;101097.91;5110562;28;20643;-64
2021/07/15 06:14:09;;;;;;;15.93;7.80;;;;;;;29.05;46.80;100986.38;5118943;28;20188;-64
2021/07/15 06:16:35;;;;;;;16.85;8.05;;;;;;;29.60;47.20;101097.28;5127405;27;20560;-64
2021/07/15 06:19:00;;;;;;;18.57;7.47;;;;;;;29.48;47.57;101087.38;5110744;28;20181;-63
2021/07/15 06:21:26;;;;;;;13.23;7.40;;;;;;;29.53;47.63;101092.22;5108748;28;20308;-64
2021/07/15 06:23:51;;;;;;;15.23;7.60;;;;;;;29.52;47.38;101089.91;5109531;28;20217;-64
2021/07/15 06:26:17;;;;;;;15.00;7.88;;;;;;;29.45;47.43;101088.50;5111403;28;20674;-64
2021/07/15 06:28:42;;;;;;;11.98;7.50;;;;;;;29.52;47.25;101087.81;5110418;28;20545;-64
2021/07/15 06:31:08;;;;;;;15.97;7.47;;;;;;;29.54;47.23;101084.41;5108312;28;20178;-64
2021/07/15 06:33:33;;;;;;;12.75;6.88;;;;;;;29.62;46.76;101093.84;5109570;28;20170;-64
2021/07/15 06:36:00;;;;;;;17.83;7.70;;;;;;;29.27;47.38;101077.25;5112486;28;20244;-64
2021/07/15 06:38:37;;;;;;;14.43;6.75;;;;;;;29.57;47.07;101089.03;5108416;27;20181;-64
2021/07/15 06:41:10;;;;;;;13.68;7.57;;;;;;;29.03;47.68;101049.69;5112808;28;20230;-64
2021/07/15 06:43:38;;;;;;;12.60;7.17;;;;;;;29.23;47.54;101091.81;5112935;28;20239;-64
2021/07/15 06:46:03;;;;;;;17.40;6.97;;;;;;;29.27;47.83;101075.13;5113890;28;20177;-63
2021/07/15 06:48:29;;;;;;;18.67;7.20;;;;;;;29.36;47.27;101080.41;5113637;28;20186;-64
2021/07/15 06:50:55;;;;;;;14.35;7.20;;;;;;;29.23;47.81;101074.69;5113156;28;20189;-64
2021/07/15 06:53:21;;;;;;;13.37;6.97;;;;;;;28.89;46.95;100978.91;5113025;28;20255;-64
2021/07/15 06:55:46;;;;;;;15.05;6.72;;;;;;;29.74;46.60;101073.06;5113534;28;20221;-64
2021/07/15 06:58:12;;;;;;;13.85;7.07;;;;;;;29.85;46.40;101072.81;5113321;28;20175;-64
2021/07/15 07:00:37;;;;;;;13.82;6.70;;;;;;;29.77;46.27;101068.31;5094657;28;20244;-63
2021/07/15 07:03:03;;;;;;;23.45;7.47;;;;;;;29.87;46.02;101072.22;5112905;27;20209;-63
2021/07/15 07:05:29;;;;;;;14.82;7.28;;;;;;;29.83;45.98;101069.72;5112320;28;20179;-64
2021/07/15 07:07:54;;;;;;;16.85;7.78;;;;;;;29.73;46.56;101065.81;5112342;28;20656;-63
2021/07/15 07:10:20;;;;;;;20.23;8.40;;;;;;;29.80;46.00;101068.00;5111927;28;20186;-63
2021/07/15 07:12:46;;;;;;;25.15;8.85;;;;;;;29.92;46.12;101054.97;5113284;28;20198;-63
2021/07/15 07:15:17;;;;;;;21.42;7.90;;;;;;;30.11;45.16;101055.56;5111347;28;20184;-64
2021/07/15 07:17:44;;;;;;;14.00;7.63;;;;;;;29.79;45.57;101025.69;5113582;28;20182;-64
2021/07/15 07:20:11;;;;;;;13.15;7.55;;;;;;;30.06;45.69;101058.53;5112322;28;20190;-64
2021/07/15 07:22:37;;;;;;;15.90;7.07;;;;;;;29.97;45.43;101054.06;5113720;28;20198;-64
2021/07/15 07:25:05;;;;;;;12.48;7.38;;;;;;;29.31;45.63;100978.50;5111885;28;20699;-63
2021/07/15 07:27:31;;;;;;;13.35;7.50;;;;;;;29.66;46.02;101054.31;5113271;28;20714;-63
2021/07/15 07:29:58;;;;;;;14.40;7.90;;;;;;;29.76;46.27;101053.28;5111497;28;20192;-64
2021/07/15 07:32:23;;;;;;;12.75;6.85;;;;;;;29.49;46.19;100991.84;5112616;28;20548;-63
2021/07/15 07:34:48;;;;;;;13.82;7.07;;;;;;;30.06;45.53;101050.72;5112386;28;20190;-64
2021/07/15 07:37:14;;;;;;;11.98;7.20;;;;;;;30.05;44.93;101052.03;5114625;27;20210;-64
2021/07/15 07:39:40;;;;;;;22.02;7.55;;;;;;;29.42;45.75;100963.97;5133604;27;20178;-64
2021/07/15 07:42:05;;;;;;;12.63;7.53;;;;;;;29.92;45.37;101051.34;5125810;27;20222;-64
2021/07/15 07:44:31;;;;;;;11.40;7.13;;;;;;;29.72;46.04;101038.56;5112547;28;20185;-64
2021/07/15 07:46:56;;;;;;;13.27;7.75;;;;;;;29.89;46.01;101043.88;5110813;28;20206;-63
2021/07/15 07:49:21;;;;;;;21.40;7.63;;;;;;;29.82;45.72;101044.56;5112608;28;20182;-64
2021/07/15 07:51:47;;;;;;;14.10;7.18;;;;;;;29.43;46.08;100959.78;5111972;28;20187;-64
2021/07/15 07:54:13;;;;;;;13.85;6.88;;;;;;;30.01;45.57;101037.34;5094072;28;20657;-64
2021/07/15 07:56:38;;;;;;;15.90;7.75;;;;;;;29.90;45.66;101031.13;5111957;28;20174;-64
2021/07/15 07:59:04;;;;;;;10.00;6.95;;;;;;;29.86;46.17;101037.19;5112815;28;20227;-64
2021/07/15 08:01:29;;;;;;;31.27;8.50;;;;;;;29.56;45.21;100956.13;5116199;27;20563;-64
2021/07/15 08:03:56;;;;;;;23.15;8.60;;;;;;;30.19;44.59;101033.50;5130964;27;20200;-64
2021/07/15 08:06:22;;;;;;;19.52;8.02;;;;;;;30.09;45.27;101043.88;5111623;28;20221;-64
2021/07/15 08:08:48;;;;;;;28.02;9.52;;;;;;;29.65;45.38;100947.88;5111944;28;20208;-64
2021/07/15 08:11:15;;;;;;;27.55;8.68;;;;;;;30.28;45.18;101033.00;5111412;28;20178;-64
2021/07/15 08:13:41;;;;;;;18.92;8.50;;;;;;;30.37;44.88;101035.38;5117352;27;20603;-64
2021/07/15 08:16:06;;;;;;;24.92;8.23;;;;;;;30.33;44.70;101042.75;5114322;27;20178;-64
2021/07/15 08:18:32;;;;;;;20.05;7.32;;;;;;;30.40;44.75;101039.97;5120048;27;20183;-67
2021/07/15 08:20:57;;;;;;;24.17;7.70;;;;;;;29.83;44.17;100946.88;5092664;28;20232;-67
2021/07/15 08:23:23;;;;;;;17.42;7.43;;;;;;;30.47;44.43;101033.56;5111920;28;20578;-67
2021/07/15 08:25:48;;;;;;;43.53;9.07;;;;;;;30.36;44.77;101018.78;5112011;28;20174;-62
2021/07/15 08:28:14;;;;;;;18.95;7.95;;;;;;;30.58;43.86;101023.88;5110865;28;20194;-68
2021/07/15 08:30:39;;;;;;;17.88;7.43;;;;;;;30.68;43.66;101027.78;5110766;28;20186;-66
2021/07/15 08:33:06;;;;;;;17.70;7.55;;;;;;;30.55;44.22;101022.91;5115818;27;20237;-64
2021/07/15 08:35:32;;;;;;;24.27;6.95;;;;;;;30.73;42.92;101024.00;5111529;28;20253;-66
2021/07/15 08:37:59;;;;;;;16.23;7.72;;;;;;;30.80;43.78;101023.28;5120786;27;20204;-68
2021/07/15 08:40:28;;;;;;;15.95;7.00;;;;;;;30.82;43.63;101029.97;5124689;27;20189;-64
2021/07/15 08:42:55;;;;;;;17.08;7.95;;;;;;;30.79;43.48;101001.72;5112412;28;20231;-66
2021/07/15 08:45:21;;;;;;;13.13;7.47;;;;;;;31.01;43.17;101015.38;5111499;28;20182;-66
2021/07/15 08:47:48;;;;;;;16.50;7.32;;;;;;;31.24;43.19;101014.19;5111955;28;20636;-66
2021/07/15 08:50:16;;;;;;;19.23;7.30;;;;;;;31.40;42.46;101014.97;5121562;27;20238;-66
2021/07/15 08:52:42;;;;;;;15.25;7.22;;;;;;;31.25;43.20;101007.13;5132545;27;20181;-66
2021/07/15 08:57:54;;;;;;;13.20;7.05;;;;;;;31.61;41.99;101010.66;5088405;28;20651;-68
2021/07/15 09:00:20;;;;;;;23.40;7.90;;;;;;;31.31;42.60;100959.03;5094566;28;20189;-69
2021/07/15 09:02:45;;;;;;;19.60;7.25;;;;;;;31.75;41.80;101014.13;5112982;28;20182;-64
2021/07/15 09:05:11;;;;;;;21.73;8.23;;;;;;;31.65;42.29;101011.03;5112994;28;20189;-64
2021/07/15 09:07:40;;;;;;;19.05;7.88;;;;;;;31.55;42.10;101012.16;5112751;28;20262;-64
2021/07/15 09:10:06;;;;;;;20.23;7.75;;;;;;;31.33;42.40;100944.13;5112906;28;20202;-64
2021/07/15 09:12:31;;;;;;;19.67;7.38;;;;;;;31.66;42.06;101001.09;5112549;28;20533;-65
2021/07/15 09:14:57;;;;;;;10.38;7.13;;;;;;;31.88;42.15;100999.63;5112941;28;20185;-64
2021/07/15 09:17:27;;;;;;;19.23;7.78;;;;;;;31.81;42.70;101006.09;5112797;28;20185;-64
2021/07/15 09:19:52;;;;;;;17.52;7.78;;;;;;;31.95;41.48;100996.00;5112455;28;20656;-66
2021/07/15 09:22:19;;;;;;;14.23;7.75;;;;;;;31.87;41.11;101001.72;5112923;28;20206;-65
2021/07/15 09:24:46;;;;;;;16.95;8.02;;;;;;;31.67;40.85;100964.59;5112503;28;20243;-64
2021/07/15 09:27:22;;;;;;;15.85;7.50;;;;;;;32.08;40.94;100990.06;5131703;27;20296;-64
2021/07/15 09:30:10;;;;;;;14.70;7.35;;;;;;;32.23;40.27;100992.91;5124395;27;20170;-64
2021/07/15 09:32:59;;;;;;;15.07;7.47;;;;;;;32.38;40.20;100981.47;5112367;28;20182;-63
2021/07/15 09:35:39;;;;;;;11.63;7.03;;;;;;;32.56;40.31;100980.28;5110947;28;20365;-65
2021/07/15 09:38:22;;;;;;;11.35;7.82;;;;;;;32.77;39.86;100978.72;5098605;27;20674;-66
2021/07/15 09:41:00;;;;;;;16.20;8.05;;;;;;;32.73;39.54;100929.53;5091738;28;20178;-72
2021/07/15 09:43:30;;;;;;;15.52;7.15;;;;;;;33.27;39.82;100974.66;5110381;28;20193;-63
2021/07/15 09:45:57;;;;;;;13.30;6.78;;;;;;;33.48;38.66;100966.50;5111022;28;20194;-65
2021/07/15 09:48:25;;;;;;;16.67;7.40;;;;;;;33.66;38.65;100971.00;5110219;28;20206;-64
2021/07/15 09:50:54;;;;;;;14.57;7.10;;;;;;;33.83;38.62;100970.34;5109094;28;20179;-66
2021/07/15 09:53:23;;;;;;;10.63;7.45;;;;;;;33.78;38.39;100968.44;5111033;28;20209;-63
2021/07/15 09:56:06;;;;;;;13.43;7.35;;;;;;;33.90;39.19;100966.63;5110701;28;20178;-63
2021/07/15 09:58:32;;;;;;;13.60;7.07;;;;;;;33.97;39.52;100963.69;5110636;28;20234;-68
2021/07/15 10:01:03;;;;;;;18.08;7.60;;;;;;;33.77;39.52;100955.38;5109153;28;20178;-68
2021/07/15 10:03:34;;;;;;;12.80;7.18;;;;;;;33.84;39.17;100951.72;5110648;28;20185;-65
2021/07/15 10:06:02;;;;;;;10.68;7.07;;;;;;;34.19;38.77;100954.06;5109918;28;20186;-67
2021/07/15 10:08:30;;;;;;;13.73;6.82;;;;;;;34.22;38.06;100952.13;5111378;28;20182;-64
2021/07/15 10:11:12;;;;;;;10.27;6.70;;;;;;;34.50;38.30;100946.69;5108632;28;20181;-64
2021/07/15 10:13:38;;;;;;;10.48;6.50;;;;;;;34.77;37.26;100944.69;5111152;28;20632;-70
2021/07/15 10:16:08;;;;;;;11.95;6.63;;;;;;;34.87;36.66;100936.88;5110725;28;20177;-69
2021/07/15 10:18:35;;;;;;;12.82;6.57;;;;;;;35.06;36.45;100944.88;5102284;28;20191;-70
2021/07/15 10:21:00;;;;;;;11.70;6.47;;;;;;;34.86;35.99;100868.34;5096903;28;20230;-70
2021/07/15 10:23:32;;;;;;;10.82;6.82;;;;;;;35.48;35.50;100931.78;5092322;28;20170;-71
2021/07/15 10:26:00;;;;;;;9.60;6.30;;;;;;;35.06;36.50;100918.97;5090789;28;20272;-70
2021/07/15 10:28:28;;;;;;;10.70;6.97;;;;;;;35.34;35.72;100909.72;5095708;28;20297;-70
2021/07/15 10:30:55;;;;;;;10.77;6.82;;;;;;;35.61;35.00;100942.16;5103883;28;20190;-70
2021/07/15 10:33:21;;;;;;;8.38;6.47;;;;;;;35.71;34.36;100923.56;5093339;28;20178;-67
2021/07/15 10:35:47;;;;;;;15.48;6.97;;;;;;;35.57;34.85;100927.44;5103462;28;20175;-67
2021/07/15 10:38:13;;;;;;;11.48;6.63;;;;;;;35.83;33.89;100920.88;5106349;28;20189;-66
2021/07/15 10:40:39;;;;;;;7.18;6.03;;;;;;;35.53;33.57;100893.28;5109656;28;20565;-66
2021/07/15 10:43:04;;;;;;;10.65;6.85;;;;;;;35.67;34.19;100925.34;5109915;28;20198;-66
2021/07/15 10:45:30;;;;;;;12.90;6.97;;;;;;;35.39;34.54;100915.22;5109756;28;20668;-67
2021/07/15 10:47:57;;;;;;;10.35;6.72;;;;;;;35.84;34.31;100911.63;5109959;28;20205;-66
2021/07/15 10:50:23;;;;;;;12.55;6.45;;;;;;;35.93;34.35;100919.53;5096953;28;20189;-67
2021/07/15 10:52:49;;;;;;;12.88;6.80;;;;;;;36.16;33.25;100907.59;5092624;28;20554;-67
2021/07/15 10:55:16;;;;;;;12.25;6.55;;;;;;;36.28;33.91;100920.84;5109682;28;20173;-66
2021/07/15 10:57:42;;;;;;;11.30;7.00;;;;;;;36.31;33.02;100913.09;5096358;28;20534;-67
2021/07/15 11:00:24;;;;;;;17.05;6.63;;;;;;;36.46;33.17;100904.91;5089150;28;20186;-67
2021/07/15 11:03:22;;;;;;;9.27;6.40;;;;;;;36.70;34.00;100903.09;5085108;28;20672;-66
2021/07/15 11:05:58;;;;;;;11.63;6.20;;;;;;;36.68;33.19;100905.81;5099146;28;20169;-66
2021/07/15 11:08:45;;;;;;;10.70;6.78;;;;;;;36.48;32.39;100905.06;5105655;28;20186;-66
2021/07/15 11:11:12;;;;;;;13.80;6.50;;;;;;;36.43;31.99;100890.91;5089204;28;20175;-67
2021/07/15 11:13:38;;;;;;;12.40;6.50;;;;;;;36.24;32.71;100899.59;5094427;28;20185;-66
2021/07/15 11:16:06;;;;;;;9.65;6.55;;;;;;;36.56;31.90;100891.22;5109226;28;20171;-66
2021/07/15 11:19:06;;;;;;;12.00;6.32;;;;;;;36.60;31.50;100877.06;5071227;28;20179;-66
2021/07/15 11:21:36;;;;;;;13.80;6.30;;;;;;;36.91;31.06;100880.13;5102619;28;20210;-68
2021/07/15 11:24:04;;;;;;;13.20;6.50;;;;;;;36.97;31.52;100886.31;5113426;28;20166;-66
2021/07/15 11:26:43;;;;;;;11.07;6.82;;;;;;;37.22;30.57;100880.97;5112966;28;20568;-66